sensor_id;sensor_type;location;lat;lon;timestamp;P1;durP1;ratioP1;P2;durP2;ratioP2
7919;SDS011;18778;47.610;9.776;2023-03-05T00:01:13;70.93;;;34.03;;
7919;SDS011;18778;47.610;9.776;2023-03-05T00:03:47;81.07;;;38.57;;
7919;SDS011;18778;47.610;9.776;2023-03-05T00:06:13;74.23;;;35.43;;
7919;SDS011;18778;47.610;9.776;2023-03-05T00:08:40;75.67;;;35.43;;
7919;SDS011;18778;47.610;9.776;2023-03-05T00:11:07;71.97;;;34.17;;
7919;SDS011;18778;47.610;9.776;2023-03-05T00:13:34;75.10;;;36.23;;
7919;SDS011;18778;47.610;9.776;2023-03-05T00:16:01;75.40;;;35.97;;
7919;SDS011;18778;47.610;9.776;2023-03-05T00:18:28;74.73;;;33.70;;
7919;SDS011;18778;47.610;9.776;2023-03-05T00:20:53;72.87;;;34.60;;
7919;SDS011;18778;47.610;9.776;2023-03-05T00:23:19;75.70;;;34.73;;
7919;SDS011;18778;47.610;9.776;2023-03-05T00:25:44;79.27;;;36.47;;
7919;SDS011;18778;47.610;9.776;2023-03-05T00:28:10;73.43;;;36.50;;
7919;SDS011;18778;47.610;9.776;2023-03-05T00:30:36;69.97;;;33.97;;
7919;SDS011;18778;47.610;9.776;2023-03-05T00:33:02;72.73;;;33.73;;
7919;SDS011;18778;47.610;9.776;2023-03-05T00:35:27;74.47;;;34.67;;
7919;SDS011;18778;47.610;9.776;2023-03-05T00:37:53;73.80;;;33.10;;
7919;SDS011;18778;47.610;9.776;2023-03-05T00:40:19;70.97;;;33.40;;
7919;SDS011;18778;47.610;9.776;2023-03-05T00:42:45;68.77;;;33.73;;
7919;SDS011;18778;47.610;9.776;2023-03-05T00:45:11;77.73;;;33.77;;
7919;SDS011;18778;47.610;9.776;2023-03-05T00:47:37;75.13;;;33.50;;
7919;SDS011;18778;47.610;9.776;2023-03-05T00:50:03;69.50;;;33.23;;
7919;SDS011;18778;47.610;9.776;2023-03-05T00:52:30;69.17;;;33.33;;
7919;SDS011;18778;47.610;9.776;2023-03-05T00:54:55;69.33;;;34.37;;
7919;SDS011;18778;47.610;9.776;2023-03-05T00:57:21;70.63;;;35.33;;
7919;SDS011;18778;47.610;9.776;2023-03-05T00:59:48;78.07;;;35.23;;
7919;SDS011;18778;47.610;9.776;2023-03-05T01:02:13;74.73;;;35.70;;
7919;SDS011;18778;47.610;9.776;2023-03-05T01:04:39;72.83;;;33.97;;
7919;SDS011;18778;47.610;9.776;2023-03-05T01:07:05;67.70;;;32.50;;
7919;SDS011;18778;47.610;9.776;2023-03-05T01:09:31;78.40;;;34.33;;
7919;SDS011;18778;47.610;9.776;2023-03-05T01:11:56;68.37;;;35.20;;
7919;SDS011;18778;47.610;9.776;2023-03-05T01:14:22;72.13;;;35.40;;
7919;SDS011;18778;47.610;9.776;2023-03-05T01:16:47;65.87;;;33.33;;
7919;SDS011;18778;47.610;9.776;2023-03-05T01:19:13;70.43;;;34.47;;
7919;SDS011;18778;47.610;9.776;2023-03-05T01:21:40;73.03;;;34.57;;
7919;SDS011;18778;47.610;9.776;2023-03-05T01:24:06;69.90;;;34.43;;
7919;SDS011;18778;47.610;9.776;2023-03-05T01:26:32;76.63;;;35.30;;
7919;SDS011;18778;47.610;9.776;2023-03-05T01:28:58;75.23;;;35.27;;
7919;SDS011;18778;47.610;9.776;2023-03-05T01:31:24;68.27;;;33.70;;
7919;SDS011;18778;47.610;9.776;2023-03-05T01:33:50;73.17;;;36.10;;
7919;SDS011;18778;47.610;9.776;2023-03-05T01:36:17;72.40;;;33.77;;
7919;SDS011;18778;47.610;9.776;2023-03-05T01:38:43;71.80;;;34.27;;
7919;SDS011;18778;47.610;9.776;2023-03-05T01:41:10;73.07;;;34.67;;
7919;SDS011;18778;47.610;9.776;2023-03-05T01:43:36;72.60;;;34.93;;
7919;SDS011;18778;47.610;9.776;2023-03-05T01:48:41;69.70;;;34.10;;
7919;SDS011;18778;47.610;9.776;2023-03-05T01:51:11;65.77;;;33.20;;
7919;SDS011;18778;47.610;9.776;2023-03-05T01:53:36;73.47;;;35.20;;
7919;SDS011;18778;47.610;9.776;2023-03-05T01:56:02;72.00;;;34.40;;
7919;SDS011;18778;47.610;9.776;2023-03-05T01:58:28;67.87;;;34.83;;
7919;SDS011;18778;47.610;9.776;2023-03-05T02:00:54;66.20;;;34.37;;
7919;SDS011;18778;47.610;9.776;2023-03-05T02:03:20;67.57;;;33.77;;
7919;SDS011;18778;47.610;9.776;2023-03-05T02:05:47;67.70;;;34.27;;
7919;SDS011;18778;47.610;9.776;2023-03-05T02:08:14;76.50;;;34.07;;
7919;SDS011;18778;47.610;9.776;2023-03-05T02:10:43;67.20;;;33.20;;
7919;SDS011;18778;47.610;9.776;2023-03-05T02:13:22;63.97;;;32.13;;
7919;SDS011;18778;47.610;9.776;2023-03-05T02:15:49;67.63;;;33.20;;
7919;SDS011;18778;47.610;9.776;2023-03-05T02:18:17;70.67;;;32.83;;
7919;SDS011;18778;47.610;9.776;2023-03-05T02:23:14;71.43;;;33.67;;
7919;SDS011;18778;47.610;9.776;2023-03-05T02:25:40;65.20;;;33.40;;
7919;SDS011;18778;47.610;9.776;2023-03-05T02:28:17;73.43;;;35.10;;
7919;SDS011;18778;47.610;9.776;2023-03-05T02:30:50;65.80;;;32.63;;
7919;SDS011;18778;47.610;9.776;2023-03-05T02:33:16;69.03;;;33.07;;
7919;SDS011;18778;47.610;9.776;2023-03-05T02:35:42;71.83;;;33.13;;
7919;SDS011;18778;47.610;9.776;2023-03-05T02:38:10;64.40;;;31.73;;
7919;SDS011;18778;47.610;9.776;2023-03-05T02:40:40;69.53;;;34.73;;
7919;SDS011;18778;47.610;9.776;2023-03-05T02:43:05;68.50;;;33.57;;
7919;SDS011;18778;47.610;9.776;2023-03-05T02:45:32;74.37;;;35.43;;
7919;SDS011;18778;47.610;9.776;2023-03-05T02:47:57;75.10;;;33.67;;
7919;SDS011;18778;47.610;9.776;2023-03-05T02:50:23;66.97;;;34.33;;
7919;SDS011;18778;47.610;9.776;2023-03-05T02:52:50;71.00;;;34.00;;
7919;SDS011;18778;47.610;9.776;2023-03-05T02:55:16;65.07;;;33.27;;
7919;SDS011;18778;47.610;9.776;2023-03-05T02:57:41;71.63;;;34.43;;
7919;SDS011;18778;47.610;9.776;2023-03-05T03:00:07;63.13;;;33.63;;
7919;SDS011;18778;47.610;9.776;2023-03-05T03:02:33;78.17;;;36.00;;
7919;SDS011;18778;47.610;9.776;2023-03-05T03:04:59;82.43;;;35.87;;
7919;SDS011;18778;47.610;9.776;2023-03-05T03:07:24;74.37;;;34.23;;
7919;SDS011;18778;47.610;9.776;2023-03-05T03:09:50;71.00;;;35.60;;
7919;SDS011;18778;47.610;9.776;2023-03-05T03:12:15;74.63;;;34.70;;
7919;SDS011;18778;47.610;9.776;2023-03-05T03:14:41;77.67;;;36.10;;
7919;SDS011;18778;47.610;9.776;2023-03-05T03:17:11;73.80;;;34.10;;
7919;SDS011;18778;47.610;9.776;2023-03-05T03:19:39;75.07;;;35.83;;
7919;SDS011;18778;47.610;9.776;2023-03-05T03:22:06;77.27;;;34.77;;
7919;SDS011;18778;47.610;9.776;2023-03-05T03:24:33;75.43;;;34.40;;
7919;SDS011;18778;47.610;9.776;2023-03-05T03:26:59;75.10;;;34.40;;
7919;SDS011;18778;47.610;9.776;2023-03-05T03:29:25;77.70;;;36.57;;
7919;SDS011;18778;47.610;9.776;2023-03-05T03:31:51;72.87;;;34.57;;
7919;SDS011;18778;47.610;9.776;2023-03-05T03:34:17;74.43;;;35.80;;
7919;SDS011;18778;47.610;9.776;2023-03-05T03:36:43;70.53;;;33.20;;
7919;SDS011;18778;47.610;9.776;2023-03-05T03:39:10;77.47;;;34.57;;
7919;SDS011;18778;47.610;9.776;2023-03-05T03:41:39;67.87;;;33.73;;
7919;SDS011;18778;47.610;9.776;2023-03-05T03:44:06;70.00;;;33.73;;
7919;SDS011;18778;47.610;9.776;2023-03-05T03:46:34;71.13;;;34.80;;
7919;SDS011;18778;47.610;9.776;2023-03-05T03:49:04;74.60;;;35.30;;
7919;SDS011;18778;47.610;9.776;2023-03-05T03:51:30;75.77;;;36.40;;
7919;SDS011;18778;47.610;9.776;2023-03-05T03:53:56;74.43;;;35.27;;
7919;SDS011;18778;47.610;9.776;2023-03-05T03:56:22;73.57;;;36.40;;
7919;SDS011;18778;47.610;9.776;2023-03-05T03:58:49;76.10;;;36.23;;
7919;SDS011;18778;47.610;9.776;2023-03-05T04:01:16;73.07;;;35.33;;
7919;SDS011;18778;47.610;9.776;2023-03-05T04:03:42;72.53;;;35.40;;
7919;SDS011;18778;47.610;9.776;2023-03-05T04:06:07;74.33;;;35.60;;
7919;SDS011;18778;47.610;9.776;2023-03-05T04:08:33;71.70;;;34.13;;
7919;SDS011;18778;47.610;9.776;2023-03-05T04:10:59;79.13;;;37.33;;
7919;SDS011;18778;47.610;9.776;2023-03-05T04:13:26;74.07;;;34.70;;
7919;SDS011;18778;47.610;9.776;2023-03-05T04:15:51;71.90;;;34.67;;
7919;SDS011;18778;47.610;9.776;2023-03-05T04:18:18;73.63;;;35.07;;
7919;SDS011;18778;47.610;9.776;2023-03-05T04:20:43;77.73;;;35.40;;
7919;SDS011;18778;47.610;9.776;2023-03-05T04:23:09;79.43;;;37.07;;
7919;SDS011;18778;47.610;9.776;2023-03-05T04:25:34;79.07;;;36.13;;
7919;SDS011;18778;47.610;9.776;2023-03-05T04:28:00;77.77;;;36.03;;
7919;SDS011;18778;47.610;9.776;2023-03-05T04:30:25;74.23;;;33.97;;
7919;SDS011;18778;47.610;9.776;2023-03-05T04:32:51;75.30;;;37.30;;
7919;SDS011;18778;47.610;9.776;2023-03-05T04:35:16;76.83;;;35.87;;
7919;SDS011;18778;47.610;9.776;2023-03-05T04:37:43;74.73;;;35.83;;
7919;SDS011;18778;47.610;9.776;2023-03-05T04:40:08;70.20;;;33.73;;
7919;SDS011;18778;47.610;9.776;2023-03-05T04:42:35;79.47;;;36.73;;
7919;SDS011;18778;47.610;9.776;2023-03-05T04:45:01;77.07;;;36.20;;
7919;SDS011;18778;47.610;9.776;2023-03-05T04:47:27;70.67;;;34.63;;
7919;SDS011;18778;47.610;9.776;2023-03-05T04:49:52;74.50;;;35.53;;
7919;SDS011;18778;47.610;9.776;2023-03-05T04:52:18;77.20;;;35.27;;
7919;SDS011;18778;47.610;9.776;2023-03-05T04:54:43;77.77;;;36.13;;
7919;SDS011;18778;47.610;9.776;2023-03-05T04:57:09;81.27;;;35.97;;
7919;SDS011;18778;47.610;9.776;2023-03-05T04:59:35;78.13;;;35.53;;
7919;SDS011;18778;47.610;9.776;2023-03-05T05:02:02;74.63;;;34.90;;
7919;SDS011;18778;47.610;9.776;2023-03-05T05:04:28;77.03;;;35.43;;
7919;SDS011;18778;47.610;9.776;2023-03-05T05:06:54;72.77;;;34.70;;
7919;SDS011;18778;47.610;9.776;2023-03-05T05:09:21;80.80;;;35.17;;
7919;SDS011;18778;47.610;9.776;2023-03-05T05:11:47;80.87;;;35.23;;
7919;SDS011;18778;47.610;9.776;2023-03-05T05:14:13;71.20;;;35.50;;
7919;SDS011;18778;47.610;9.776;2023-03-05T05:16:39;73.13;;;34.57;;
7919;SDS011;18778;47.610;9.776;2023-03-05T05:19:04;70.80;;;34.43;;
7919;SDS011;18778;47.610;9.776;2023-03-05T05:21:30;72.17;;;35.37;;
7919;SDS011;18778;47.610;9.776;2023-03-05T05:23:55;75.13;;;35.53;;
7919;SDS011;18778;47.610;9.776;2023-03-05T05:26:21;82.73;;;37.67;;
7919;SDS011;18778;47.610;9.776;2023-03-05T05:28:47;75.27;;;35.47;;
7919;SDS011;18778;47.610;9.776;2023-03-05T05:31:14;79.20;;;35.27;;
7919;SDS011;18778;47.610;9.776;2023-03-05T05:33:40;72.97;;;34.77;;
7919;SDS011;18778;47.610;9.776;2023-03-05T05:36:06;77.53;;;35.43;;
7919;SDS011;18778;47.610;9.776;2023-03-05T05:38:34;76.70;;;35.47;;
7919;SDS011;18778;47.610;9.776;2023-03-05T05:41:01;78.47;;;36.17;;
7919;SDS011;18778;47.610;9.776;2023-03-05T05:43:28;76.80;;;35.37;;
7919;SDS011;18778;47.610;9.776;2023-03-05T05:45:57;76.80;;;35.17;;
7919;SDS011;18778;47.610;9.776;2023-03-05T05:48:31;83.77;;;36.13;;
7919;SDS011;18778;47.610;9.776;2023-03-05T05:50:58;77.57;;;35.23;;
7919;SDS011;18778;47.610;9.776;2023-03-05T05:53:24;76.07;;;35.27;;
7919;SDS011;18778;47.610;9.776;2023-03-05T05:55:50;72.20;;;35.37;;
7919;SDS011;18778;47.610;9.776;2023-03-05T05:58:16;84.30;;;37.40;;
7919;SDS011;18778;47.610;9.776;2023-03-05T06:00:42;95.63;;;42.30;;
7919;SDS011;18778;47.610;9.776;2023-03-05T06:03:08;91.93;;;43.00;;
7919;SDS011;18778;47.610;9.776;2023-03-05T06:05:34;87.43;;;41.17;;
7919;SDS011;18778;47.610;9.776;2023-03-05T06:07:59;86.70;;;41.40;;
7919;SDS011;18778;47.610;9.776;2023-03-05T06:10:25;87.00;;;42.47;;
7919;SDS011;18778;47.610;9.776;2023-03-05T06:12:51;82.43;;;39.47;;
7919;SDS011;18778;47.610;9.776;2023-03-05T06:15:17;86.53;;;38.03;;
7919;SDS011;18778;47.610;9.776;2023-03-05T06:17:43;89.30;;;46.53;;
7919;SDS011;18778;47.610;9.776;2023-03-05T06:20:12;82.23;;;39.43;;
7919;SDS011;18778;47.610;9.776;2023-03-05T06:22:38;77.47;;;36.47;;
7919;SDS011;18778;47.610;9.776;2023-03-05T06:25:07;80.40;;;38.27;;
7919;SDS011;18778;47.610;9.776;2023-03-05T06:27:34;79.37;;;37.07;;
7919;SDS011;18778;47.610;9.776;2023-03-05T06:30:00;79.83;;;37.63;;
7919;SDS011;18778;47.610;9.776;2023-03-05T06:32:26;75.70;;;36.60;;
7919;SDS011;18778;47.610;9.776;2023-03-05T06:34:51;79.43;;;35.73;;
7919;SDS011;18778;47.610;9.776;2023-03-05T06:37:17;71.93;;;34.87;;
7919;SDS011;18778;47.610;9.776;2023-03-05T06:39:43;80.83;;;36.43;;
7919;SDS011;18778;47.610;9.776;2023-03-05T06:42:09;78.60;;;35.70;;
7919;SDS011;18778;47.610;9.776;2023-03-05T06:44:39;74.60;;;36.40;;
7919;SDS011;18778;47.610;9.776;2023-03-05T06:47:05;81.17;;;35.67;;
7919;SDS011;18778;47.610;9.776;2023-03-05T06:49:33;80.23;;;37.37;;
7919;SDS011;18778;47.610;9.776;2023-03-05T06:51:58;82.63;;;37.83;;
7919;SDS011;18778;47.610;9.776;2023-03-05T06:54:25;86.53;;;37.23;;
7919;SDS011;18778;47.610;9.776;2023-03-05T06:56:50;86.03;;;38.40;;
7919;SDS011;18778;47.610;9.776;2023-03-05T06:59:16;79.83;;;37.90;;
7919;SDS011;18778;47.610;9.776;2023-03-05T07:01:42;84.07;;;38.20;;
7919;SDS011;18778;47.610;9.776;2023-03-05T07:04:09;80.97;;;37.50;;
7919;SDS011;18778;47.610;9.776;2023-03-05T07:09:03;80.73;;;37.83;;
7919;SDS011;18778;47.610;9.776;2023-03-05T07:11:29;73.50;;;36.43;;
7919;SDS011;18778;47.610;9.776;2023-03-05T07:13:55;77.80;;;37.53;;
7919;SDS011;18778;47.610;9.776;2023-03-05T07:16:22;73.67;;;36.37;;
7919;SDS011;18778;47.610;9.776;2023-03-05T07:18:53;73.67;;;36.10;;
7919;SDS011;18778;47.610;9.776;2023-03-05T07:21:21;78.53;;;36.50;;
7919;SDS011;18778;47.610;9.776;2023-03-05T07:23:52;76.13;;;36.83;;
7919;SDS011;18778;47.610;9.776;2023-03-05T07:26:22;72.83;;;35.23;;
7919;SDS011;18778;47.610;9.776;2023-03-05T07:28:48;75.30;;;36.73;;
7919;SDS011;18778;47.610;9.776;2023-03-05T07:31:15;75.83;;;36.37;;
7919;SDS011;18778;47.610;9.776;2023-03-05T07:33:46;73.57;;;37.17;;
7919;SDS011;18778;47.610;9.776;2023-03-05T07:36:12;76.00;;;36.10;;
7919;SDS011;18778;47.610;9.776;2023-03-05T07:38:38;70.63;;;34.60;;
7919;SDS011;18778;47.610;9.776;2023-03-05T07:41:05;71.03;;;35.30;;
7919;SDS011;18778;47.610;9.776;2023-03-05T07:43:33;73.57;;;35.53;;
7919;SDS011;18778;47.610;9.776;2023-03-05T07:45:58;70.67;;;35.83;;
7919;SDS011;18778;47.610;9.776;2023-03-05T07:48:27;68.53;;;34.80;;
7919;SDS011;18778;47.610;9.776;2023-03-05T07:50:59;69.13;;;36.07;;
7919;SDS011;18778;47.610;9.776;2023-03-05T07:53:32;78.47;;;36.83;;
7919;SDS011;18778;47.610;9.776;2023-03-05T07:55:58;74.70;;;36.57;;
7919;SDS011;18778;47.610;9.776;2023-03-05T07:58:24;67.63;;;34.93;;
7919;SDS011;18778;47.610;9.776;2023-03-05T08:00:49;69.10;;;35.60;;
7919;SDS011;18778;47.610;9.776;2023-03-05T08:03:15;71.83;;;35.67;;
7919;SDS011;18778;47.610;9.776;2023-03-05T08:05:41;73.43;;;34.87;;
7919;SDS011;18778;47.610;9.776;2023-03-05T08:08:07;73.60;;;34.70;;
7919;SDS011;18778;47.610;9.776;2023-03-05T08:10:33;75.23;;;35.57;;
7919;SDS011;18778;47.610;9.776;2023-03-05T08:12:59;66.17;;;34.33;;
7919;SDS011;18778;47.610;9.776;2023-03-05T08:15:25;66.70;;;34.13;;
7919;SDS011;18778;47.610;9.776;2023-03-05T08:17:50;71.20;;;34.27;;
7919;SDS011;18778;47.610;9.776;2023-03-05T08:20:16;64.63;;;33.73;;
7919;SDS011;18778;47.610;9.776;2023-03-05T08:22:43;68.00;;;34.50;;
7919;SDS011;18778;47.610;9.776;2023-03-05T08:25:09;64.47;;;33.43;;
7919;SDS011;18778;47.610;9.776;2023-03-05T08:27:39;62.00;;;31.63;;
7919;SDS011;18778;47.610;9.776;2023-03-05T08:30:07;59.70;;;31.30;;
7919;SDS011;18778;47.610;9.776;2023-03-05T08:32:34;61.67;;;32.00;;
7919;SDS011;18778;47.610;9.776;2023-03-05T08:35:00;58.97;;;30.70;;
7919;SDS011;18778;47.610;9.776;2023-03-05T08:37:28;68.67;;;32.80;;
7919;SDS011;18778;47.610;9.776;2023-03-05T08:39:54;68.63;;;33.53;;
7919;SDS011;18778;47.610;9.776;2023-03-05T08:42:23;60.13;;;32.37;;
7919;SDS011;18778;47.610;9.776;2023-03-05T08:44:49;55.53;;;30.63;;
7919;SDS011;18778;47.610;9.776;2023-03-05T08:47:15;56.70;;;30.57;;
7919;SDS011;18778;47.610;9.776;2023-03-05T08:49:42;64.33;;;31.40;;
7919;SDS011;18778;47.610;9.776;2023-03-05T08:52:08;59.80;;;30.17;;
7919;SDS011;18778;47.610;9.776;2023-03-05T08:54:35;56.63;;;29.33;;
7919;SDS011;18778;47.610;9.776;2023-03-05T08:57:01;60.70;;;31.03;;
7919;SDS011;18778;47.610;9.776;2023-03-05T08:59:27;58.10;;;29.87;;
7919;SDS011;18778;47.610;9.776;2023-03-05T09:01:52;57.60;;;30.90;;
7919;SDS011;18778;47.610;9.776;2023-03-05T09:04:18;59.40;;;31.47;;
7919;SDS011;18778;47.610;9.776;2023-03-05T09:06:43;53.10;;;27.77;;
7919;SDS011;18778;47.610;9.776;2023-03-05T09:09:09;55.53;;;29.80;;
7919;SDS011;18778;47.610;9.776;2023-03-05T09:11:35;57.20;;;29.23;;
7919;SDS011;18778;47.610;9.776;2023-03-05T09:14:02;52.23;;;28.33;;
7919;SDS011;18778;47.610;9.776;2023-03-05T09:16:27;52.57;;;28.67;;
7919;SDS011;18778;47.610;9.776;2023-03-05T09:18:53;53.33;;;28.23;;
7919;SDS011;18778;47.610;9.776;2023-03-05T09:21:19;49.07;;;27.17;;
7919;SDS011;18778;47.610;9.776;2023-03-05T09:23:45;50.03;;;27.07;;
7919;SDS011;18778;47.610;9.776;2023-03-05T09:26:14;47.47;;;26.70;;
7919;SDS011;18778;47.610;9.776;2023-03-05T09:28:43;53.67;;;27.80;;
7919;SDS011;18778;47.610;9.776;2023-03-05T09:31:09;52.57;;;27.63;;
7919;SDS011;18778;47.610;9.776;2023-03-05T09:33:36;53.07;;;28.67;;
7919;SDS011;18778;47.610;9.776;2023-03-05T09:36:03;52.80;;;27.93;;
7919;SDS011;18778;47.610;9.776;2023-03-05T09:38:29;50.37;;;26.83;;
7919;SDS011;18778;47.610;9.776;2023-03-05T09:41:05;50.20;;;26.20;;
7919;SDS011;18778;47.610;9.776;2023-03-05T09:48:55;44.80;;;25.73;;
7919;SDS011;18778;47.610;9.776;2023-03-05T09:51:30;48.97;;;26.17;;
7919;SDS011;18778;47.610;9.776;2023-03-05T09:54:24;47.47;;;26.23;;
7919;SDS011;18778;47.610;9.776;2023-03-05T09:56:57;46.87;;;25.77;;
7919;SDS011;18778;47.610;9.776;2023-03-05T10:01:52;53.93;;;28.47;;
7919;SDS011;18778;47.610;9.776;2023-03-05T10:07:33;49.10;;;26.40;;
7919;SDS011;18778;47.610;9.776;2023-03-05T10:10:04;44.00;;;26.40;;
7919;SDS011;18778;47.610;9.776;2023-03-05T10:12:47;47.10;;;26.17;;
7919;SDS011;18778;47.610;9.776;2023-03-05T10:15:25;48.53;;;26.23;;
7919;SDS011;18778;47.610;9.776;2023-03-05T10:21:05;46.57;;;25.80;;
7919;SDS011;18778;47.610;9.776;2023-03-05T10:24:06;43.20;;;24.63;;
7919;SDS011;18778;47.610;9.776;2023-03-05T10:26:51;42.80;;;23.60;;
7919;SDS011;18778;47.610;9.776;2023-03-05T10:32:27;46.27;;;26.40;;
7919;SDS011;18778;47.610;9.776;2023-03-05T10:38:11;37.80;;;22.70;;
7919;SDS011;18778;47.610;9.776;2023-03-05T10:40:50;41.83;;;23.47;;
7919;SDS011;18778;47.610;9.776;2023-03-05T10:43:20;44.97;;;24.60;;
7919;SDS011;18778;47.610;9.776;2023-03-05T10:46:00;40.67;;;23.37;;
7919;SDS011;18778;47.610;9.776;2023-03-05T10:48:35;38.10;;;22.60;;
7919;SDS011;18778;47.610;9.776;2023-03-05T10:51:16;38.90;;;21.67;;
7919;SDS011;18778;47.610;9.776;2023-03-05T10:59:45;29.57;;;18.47;;
7919;SDS011;18778;47.610;9.776;2023-03-05T11:02:13;28.47;;;16.90;;
7919;SDS011;18778;47.610;9.776;2023-03-05T11:04:39;33.37;;;19.03;;
7919;SDS011;18778;47.610;9.776;2023-03-05T11:07:50;26.13;;;15.90;;
7919;SDS011;18778;47.610;9.776;2023-03-05T11:12:28;25.77;;;14.90;;
7919;SDS011;18778;47.610;9.776;2023-03-05T11:15:17;23.73;;;15.23;;
7919;SDS011;18778;47.610;9.776;2023-03-05T11:20:48;25.83;;;15.93;;
7919;SDS011;18778;47.610;9.776;2023-03-05T11:23:16;30.37;;;17.50;;
7919;SDS011;18778;47.610;9.776;2023-03-05T11:28:37;27.23;;;16.50;;
7919;SDS011;18778;47.610;9.776;2023-03-05T11:33:39;24.57;;;14.53;;
7919;SDS011;18778;47.610;9.776;2023-03-05T11:36:24;23.70;;;14.40;;
7919;SDS011;18778;47.610;9.776;2023-03-05T11:41:33;25.53;;;14.43;;
7919;SDS011;18778;47.610;9.776;2023-03-05T11:44:08;23.17;;;14.00;;
7919;SDS011;18778;47.610;9.776;2023-03-05T11:46:49;22.20;;;14.50;;
7919;SDS011;18778;47.610;9.776;2023-03-05T11:49:37;20.20;;;13.63;;
7919;SDS011;18778;47.610;9.776;2023-03-05T11:52:14;21.63;;;13.50;;
7919;SDS011;18778;47.610;9.776;2023-03-05T11:57:43;22.13;;;14.27;;
7919;SDS011;18778;47.610;9.776;2023-03-05T12:00:15;18.53;;;12.40;;
7919;SDS011;18778;47.610;9.776;2023-03-05T12:02:46;19.90;;;13.10;;
7919;SDS011;18778;47.610;9.776;2023-03-05T12:05:16;19.60;;;14.03;;
7919;SDS011;18778;47.610;9.776;2023-03-05T12:07:44;18.80;;;13.40;;
7919;SDS011;18778;47.610;9.776;2023-03-05T12:10:16;24.07;;;13.80;;
7919;SDS011;18778;47.610;9.776;2023-03-05T12:12:50;20.77;;;13.17;;
7919;SDS011;18778;47.610;9.776;2023-03-05T12:20:54;20.37;;;13.93;;
7919;SDS011;18778;47.610;9.776;2023-03-05T12:23:27;22.40;;;14.20;;
7919;SDS011;18778;47.610;9.776;2023-03-05T12:25:53;21.87;;;14.17;;
7919;SDS011;18778;47.610;9.776;2023-03-05T12:30:54;22.13;;;13.37;;
7919;SDS011;18778;47.610;9.776;2023-03-05T12:38:47;20.63;;;13.53;;
7919;SDS011;18778;47.610;9.776;2023-03-05T12:46:36;25.13;;;15.83;;
7919;SDS011;18778;47.610;9.776;2023-03-05T12:51:51;22.87;;;14.77;;
7919;SDS011;18778;47.610;9.776;2023-03-05T12:54:23;24.57;;;15.30;;
7919;SDS011;18778;47.610;9.776;2023-03-05T12:56:59;22.37;;;15.50;;
7919;SDS011;18778;47.610;9.776;2023-03-05T12:59:42;24.60;;;14.47;;
7919;SDS011;18778;47.610;9.776;2023-03-05T13:02:36;29.37;;;17.13;;
7919;SDS011;18778;47.610;9.776;2023-03-05T13:08:08;27.10;;;16.63;;
7919;SDS011;18778;47.610;9.776;2023-03-05T13:10:36;26.43;;;17.40;;
7919;SDS011;18778;47.610;9.776;2023-03-05T13:13:02;26.03;;;17.33;;
7919;SDS011;18778;47.610;9.776;2023-03-05T13:15:28;28.17;;;18.20;;
7919;SDS011;18778;47.610;9.776;2023-03-05T13:17:57;30.93;;;19.47;;
7919;SDS011;18778;47.610;9.776;2023-03-05T13:20:31;30.07;;;19.33;;
7919;SDS011;18778;47.610;9.776;2023-03-05T13:25:57;32.47;;;21.07;;
7919;SDS011;18778;47.610;9.776;2023-03-05T13:28:24;30.03;;;19.77;;
7919;SDS011;18778;47.610;9.776;2023-03-05T13:30:51;32.17;;;20.77;;
7919;SDS011;18778;47.610;9.776;2023-03-05T13:33:21;30.17;;;19.83;;
7919;SDS011;18778;47.610;9.776;2023-03-05T13:35:58;33.33;;;19.80;;
7919;SDS011;18778;47.610;9.776;2023-03-05T13:38:29;26.57;;;17.33;;
7919;SDS011;18778;47.610;9.776;2023-03-05T13:43:46;31.17;;;18.77;;
7919;SDS011;18778;47.610;9.776;2023-03-05T13:46:31;27.57;;;17.17;;
7919;SDS011;18778;47.610;9.776;2023-03-05T13:51:55;24.77;;;15.53;;
7919;SDS011;18778;47.610;9.776;2023-03-05T13:54:22;31.83;;;19.53;;
7919;SDS011;18778;47.610;9.776;2023-03-05T13:56:50;33.07;;;19.30;;
7919;SDS011;18778;47.610;9.776;2023-03-05T13:59:20;34.33;;;20.13;;
7919;SDS011;18778;47.610;9.776;2023-03-05T14:01:47;38.43;;;20.90;;
7919;SDS011;18778;47.610;9.776;2023-03-05T14:12:02;31.73;;;19.07;;
7919;SDS011;18778;47.610;9.776;2023-03-05T14:14:31;27.50;;;17.27;;
7919;SDS011;18778;47.610;9.776;2023-03-05T14:17:19;33.13;;;18.43;;
7919;SDS011;18778;47.610;9.776;2023-03-05T14:20:40;28.37;;;19.13;;
7919;SDS011;18778;47.610;9.776;2023-03-05T14:22:44;31.33;;;19.37;;
7919;SDS011;18778;47.610;9.776;2023-03-05T14:28:01;32.70;;;19.60;;
7919;SDS011;18778;47.610;9.776;2023-03-05T14:30:29;29.67;;;18.83;;
7919;SDS011;18778;47.610;9.776;2023-03-05T14:32:55;28.23;;;19.70;;
7919;SDS011;18778;47.610;9.776;2023-03-05T14:35:23;30.17;;;19.43;;
7919;SDS011;18778;47.610;9.776;2023-03-05T14:37:52;31.60;;;19.10;;
7919;SDS011;18778;47.610;9.776;2023-03-05T14:40:20;29.27;;;18.67;;
7919;SDS011;18778;47.610;9.776;2023-03-05T14:45:27;28.33;;;18.50;;
7919;SDS011;18778;47.610;9.776;2023-03-05T14:47:58;28.40;;;18.30;;
7919;SDS011;18778;47.610;9.776;2023-03-05T14:50:26;28.87;;;19.17;;
7919;SDS011;18778;47.610;9.776;2023-03-05T14:52:58;29.60;;;19.00;;
7919;SDS011;18778;47.610;9.776;2023-03-05T14:55:31;28.30;;;19.23;;
7919;SDS011;18778;47.610;9.776;2023-03-05T14:58:00;30.10;;;19.60;;
7919;SDS011;18778;47.610;9.776;2023-03-05T15:00:49;27.20;;;18.57;;
7919;SDS011;18778;47.610;9.776;2023-03-05T15:03:15;28.03;;;19.30;;
7919;SDS011;18778;47.610;9.776;2023-03-05T15:05:42;29.07;;;19.07;;
7919;SDS011;18778;47.610;9.776;2023-03-05T15:08:16;29.53;;;17.20;;
7919;SDS011;18778;47.610;9.776;2023-03-05T15:10:53;30.33;;;18.43;;
7919;SDS011;18778;47.610;9.776;2023-03-05T15:13:19;32.57;;;18.73;;
7919;SDS011;18778;47.610;9.776;2023-03-05T15:15:45;28.53;;;17.77;;
7919;SDS011;18778;47.610;9.776;2023-03-05T15:18:12;30.63;;;17.73;;
7919;SDS011;18778;47.610;9.776;2023-03-05T15:20:40;30.03;;;18.27;;
7919;SDS011;18778;47.610;9.776;2023-03-05T15:23:06;27.13;;;17.50;;
7919;SDS011;18778;47.610;9.776;2023-03-05T15:25:31;26.27;;;16.97;;
7919;SDS011;18778;47.610;9.776;2023-03-05T15:27:57;26.20;;;16.90;;
7919;SDS011;18778;47.610;9.776;2023-03-05T15:30:27;24.77;;;16.03;;
7919;SDS011;18778;47.610;9.776;2023-03-05T15:32:54;22.93;;;16.53;;
7919;SDS011;18778;47.610;9.776;2023-03-05T15:35:21;24.87;;;15.90;;
7919;SDS011;18778;47.610;9.776;2023-03-05T15:37:48;25.23;;;16.03;;
7919;SDS011;18778;47.610;9.776;2023-03-05T15:40:14;23.90;;;15.13;;
7919;SDS011;18778;47.610;9.776;2023-03-05T15:42:40;23.57;;;16.00;;
7919;SDS011;18778;47.610;9.776;2023-03-05T15:45:06;24.87;;;15.23;;
7919;SDS011;18778;47.610;9.776;2023-03-05T15:47:31;20.97;;;14.10;;
7919;SDS011;18778;47.610;9.776;2023-03-05T15:50:00;20.33;;;13.27;;
7919;SDS011;18778;47.610;9.776;2023-03-05T15:52:26;23.70;;;14.67;;
7919;SDS011;18778;47.610;9.776;2023-03-05T15:54:52;23.03;;;14.10;;
7919;SDS011;18778;47.610;9.776;2023-03-05T15:57:18;24.40;;;14.07;;
7919;SDS011;18778;47.610;9.776;2023-03-05T15:59:47;20.60;;;13.90;;
7919;SDS011;18778;47.610;9.776;2023-03-05T16:02:13;19.27;;;13.37;;
7919;SDS011;18778;47.610;9.776;2023-03-05T16:04:39;22.60;;;13.97;;
7919;SDS011;18778;47.610;9.776;2023-03-05T16:07:04;14.90;;;10.43;;
7919;SDS011;18778;47.610;9.776;2023-03-05T16:09:34;15.17;;;10.00;;
7919;SDS011;18778;47.610;9.776;2023-03-05T16:12:03;12.43;;;9.10;;
7919;SDS011;18778;47.610;9.776;2023-03-05T16:14:34;11.87;;;8.87;;
7919;SDS011;18778;47.610;9.776;2023-03-05T16:17:01;10.83;;;7.90;;
7919;SDS011;18778;47.610;9.776;2023-03-05T16:19:27;10.83;;;8.43;;